LPAZ/SMA METAR and TAF weather

Enter ICAO airport designator
Station Type Date Time Source
LPAZ METAR 2021/07/27 21:30 UTC NOAA

LPAZ 272130Z 03014KT 9999 FEW016 21/18 Q1026


Station Type Date Time Source
LPAZ Decoded METAR 2021/07/27 21:30 UTC NOAA

Santa Maria Acores , Portugal (LPAZ) 36-58N 025-10W 100M
Jul 27, 2021 - 05:30 PM EDT / 2021.07.27 2130 UTC
Wind: from the NNE (030 degrees) at 16 MPH (14 KT):0
Visibility: greater than 7 mile(s):0
Sky conditions: mostly clear
Temperature: 69 F (21 C)
Dew Point: 64 F (18 C)
Relative Humidity: 82%
Pressure (altimeter): 30.30 in. Hg (1026 hPa)
ob: LPAZ 272130Z 03014KT 9999 FEW016 21/18 Q1026
cycle: 21

Station Type Date Time Source
LPAZ TAF 2021/07/27 18:18 UTC NOAA

TAF TAF LPAZ 271700Z 2718/2824 03013KT 9999 SCT012 BKN025
TEMPO 2718/2809 5000 -RA BR SCT004 BKN008
BECMG 2812/2815 SCT015 BKN030 PROB30
TEMPO 2818/2824 SCT004 BKN008

Example: see airport list